KKLS

Details ICAO KKLS (KLS)
Name KELSO LONGVIEW
Region United States
Timezone America/Los_Angeles (UTC-8.0)
Plans Departing 3
Arriving 5
Stats Elevation 20 ft / 6 m (AMSL)
Location 46.118009° -122.898374°
Runways 1
Magnetic Variation 15.471° E
Sunrise 2017-12-13 15:47:19 UTC / 2017-12-13 07:47:19 Local
Sunset 2017-12-14 00:27:25 UTC / 2017-12-13 16:27:25 Local
Advertisement - Login to hide

Runways

ID Width Length Bearing (true) Bearing (mag) Surface Threshold Offset Overrun Length
12 100 ft / 30 m 4,387 ft / 1,337 m 140.43° 124.96° Asphalt 0 ft / 0 m 0 ft / 0 m
30 100 ft / 30 m 4,387 ft / 1,337 m 320.44° 304.97° Asphalt 0 ft / 0 m 0 ft / 0 m

Map

Weather


0- 5 10 15 20 25 30 35+ Temperature / ° C

Clouds and Precipitation
Forecast for 2017-12-13 18:00 UTC. Updated an hour ago

Ground ~20,000 ft ~40,000 ft Winds

METAR

KKLS 131756Z AUTO 00000KT 10SM CLR 04/01 A3043 RMK AO2 SLP308 T00390011 10039 21028 50007

TAF

Not found

Frequencies

Recorded 135.07 MHz AWOS 3
Unicom 122.80 MHz CTAF/UNICOM
Warning: Do not use this data for real-world aviation or navigation. No guarantee of current accuracy is given.